sensor_id;sensor_type;location;lat;lon;timestamp;temperature;humidity
10249;DHT22;5169;50.560;9.714;2023-08-20T00:01:21;22.70;99.90
10249;DHT22;5169;50.560;9.714;2023-08-20T00:03:51;22.70;99.90
10249;DHT22;5169;50.560;9.714;2023-08-20T00:06:17;22.70;99.90
10249;DHT22;5169;50.560;9.714;2023-08-20T00:08:42;22.60;99.90
10249;DHT22;5169;50.560;9.714;2023-08-20T00:11:12;22.50;99.90
10249;DHT22;5169;50.560;9.714;2023-08-20T00:13:41;22.50;99.90
10249;DHT22;5169;50.560;9.714;2023-08-20T00:16:07;22.50;99.90
10249;DHT22;5169;50.560;9.714;2023-08-20T00:18:41;22.50;99.90
10249;DHT22;5169;50.560;9.714;2023-08-20T00:21:15;22.50;99.90
10249;DHT22;5169;50.560;9.714;2023-08-20T00:23:40;22.50;99.90
10249;DHT22;5169;50.560;9.714;2023-08-20T00:26:06;22.40;99.90
10249;DHT22;5169;50.560;9.714;2023-08-20T00:28:37;22.30;99.90
10249;DHT22;5169;50.560;9.714;2023-08-20T00:31:04;22.30;99.90
10249;DHT22;5169;50.560;9.714;2023-08-20T00:33:31;22.30;99.90
10249;DHT22;5169;50.560;9.714;2023-08-20T00:35:56;22.30;99.90
10249;DHT22;5169;50.560;9.714;2023-08-20T00:38:22;22.30;99.90
10249;DHT22;5169;50.560;9.714;2023-08-20T00:40:47;22.20;99.90
10249;DHT22;5169;50.560;9.714;2023-08-20T00:43:19;22.20;99.90
10249;DHT22;5169;50.560;9.714;2023-08-20T00:45:50;22.10;99.90
10249;DHT22;5169;50.560;9.714;2023-08-20T00:48:16;22.00;99.90
10249;DHT22;5169;50.560;9.714;2023-08-20T00:50:42;22.00;99.90
10249;DHT22;5169;50.560;9.714;2023-08-20T00:53:13;21.90;99.90
10249;DHT22;5169;50.560;9.714;2023-08-20T00:55:40;21.80;99.90
10249;DHT22;5169;50.560;9.714;2023-08-20T00:58:06;21.80;99.90
10249;DHT22;5169;50.560;9.714;2023-08-20T01:00:31;21.70;99.90
10249;DHT22;5169;50.560;9.714;2023-08-20T01:02:57;21.60;99.90
10249;DHT22;5169;50.560;9.714;2023-08-20T01:05:23;21.60;99.90
10249;DHT22;5169;50.560;9.714;2023-08-20T01:08:27;21.50;99.90
10249;DHT22;5169;50.560;9.714;2023-08-20T01:11:14;21.40;99.90
10249;DHT22;5169;50.560;9.714;2023-08-20T01:13:50;21.40;99.90
10249;DHT22;5169;50.560;9.714;2023-08-20T01:16:16;21.40;99.90
10249;DHT22;5169;50.560;9.714;2023-08-20T01:18:42;21.50;99.90
10249;DHT22;5169;50.560;9.714;2023-08-20T01:21:28;21.40;99.90
10249;DHT22;5169;50.560;9.714;2023-08-20T01:29:19;21.40;99.90
10249;DHT22;5169;50.560;9.714;2023-08-20T01:31:47;21.30;99.90
10249;DHT22;5169;50.560;9.714;2023-08-20T01:34:19;21.20;99.90
10249;DHT22;5169;50.560;9.714;2023-08-20T01:36:47;21.10;99.90
10249;DHT22;5169;50.560;9.714;2023-08-20T01:39:18;21.10;99.90
10249;DHT22;5169;50.560;9.714;2023-08-20T01:41:44;21.10;99.90
10249;DHT22;5169;50.560;9.714;2023-08-20T01:44:18;21.00;99.90
10249;DHT22;5169;50.560;9.714;2023-08-20T01:46:46;21.00;99.90
10249;DHT22;5169;50.560;9.714;2023-08-20T01:49:12;20.90;99.90
10249;DHT22;5169;50.560;9.714;2023-08-20T01:51:37;20.90;99.90
10249;DHT22;5169;50.560;9.714;2023-08-20T01:54:05;20.90;99.90
10249;DHT22;5169;50.560;9.714;2023-08-20T01:56:34;20.90;99.90
10249;DHT22;5169;50.560;9.714;2023-08-20T01:59:00;20.90;99.90
10249;DHT22;5169;50.560;9.714;2023-08-20T02:01:25;21.00;99.90
10249;DHT22;5169;50.560;9.714;2023-08-20T02:03:52;21.00;99.90
10249;DHT22;5169;50.560;9.714;2023-08-20T02:06:24;21.00;99.90
10249;DHT22;5169;50.560;9.714;2023-08-20T02:08:49;21.10;99.90
10249;DHT22;5169;50.560;9.714;2023-08-20T02:11:15;21.30;99.90
10249;DHT22;5169;50.560;9.714;2023-08-20T02:13:41;21.30;99.90
10249;DHT22;5169;50.560;9.714;2023-08-20T02:16:06;21.40;99.90
10249;DHT22;5169;50.560;9.714;2023-08-20T02:18:32;21.40;99.90
10249;DHT22;5169;50.560;9.714;2023-08-20T02:20:58;21.60;99.90
10249;DHT22;5169;50.560;9.714;2023-08-20T02:23:24;21.60;99.90
10249;DHT22;5169;50.560;9.714;2023-08-20T02:25:49;21.50;99.90
10249;DHT22;5169;50.560;9.714;2023-08-20T02:28:15;21.40;99.90
10249;DHT22;5169;50.560;9.714;2023-08-20T02:30:47;21.40;99.90
10249;DHT22;5169;50.560;9.714;2023-08-20T02:33:15;21.20;99.90
10249;DHT22;5169;50.560;9.714;2023-08-20T02:35:42;21.10;99.90
10249;DHT22;5169;50.560;9.714;2023-08-20T02:38:09;21.10;99.90
10249;DHT22;5169;50.560;9.714;2023-08-20T02:40:40;21.10;99.90
10249;DHT22;5169;50.560;9.714;2023-08-20T02:43:06;21.10;99.90
10249;DHT22;5169;50.560;9.714;2023-08-20T02:45:32;21.10;99.90
10249;DHT22;5169;50.560;9.714;2023-08-20T02:47:57;21.10;99.90
10249;DHT22;5169;50.560;9.714;2023-08-20T02:50:25;21.20;99.90
10249;DHT22;5169;50.560;9.714;2023-08-20T02:52:50;21.30;99.90
10249;DHT22;5169;50.560;9.714;2023-08-20T02:55:16;21.20;99.90
10249;DHT22;5169;50.560;9.714;2023-08-20T02:57:42;21.20;99.90
10249;DHT22;5169;50.560;9.714;2023-08-20T03:00:10;21.10;99.90
10249;DHT22;5169;50.560;9.714;2023-08-20T03:02:44;21.10;99.90
10249;DHT22;5169;50.560;9.714;2023-08-20T03:05:10;21.10;99.90
10249;DHT22;5169;50.560;9.714;2023-08-20T03:07:35;21.10;99.90
10249;DHT22;5169;50.560;9.714;2023-08-20T03:10:10;21.00;99.90
10249;DHT22;5169;50.560;9.714;2023-08-20T03:12:35;21.00;99.90
10249;DHT22;5169;50.560;9.714;2023-08-20T03:15:04;21.00;99.90
10249;DHT22;5169;50.560;9.714;2023-08-20T03:17:34;20.90;99.90
10249;DHT22;5169;50.560;9.714;2023-08-20T03:20:00;20.90;99.90
10249;DHT22;5169;50.560;9.714;2023-08-20T03:22:27;20.90;99.90
10249;DHT22;5169;50.560;9.714;2023-08-20T03:24:53;20.90;99.90
10249;DHT22;5169;50.560;9.714;2023-08-20T03:27:19;20.90;99.90
10249;DHT22;5169;50.560;9.714;2023-08-20T03:29:45;20.90;99.90
10249;DHT22;5169;50.560;9.714;2023-08-20T03:32:11;20.80;99.90
10249;DHT22;5169;50.560;9.714;2023-08-20T03:34:37;20.80;99.90
10249;DHT22;5169;50.560;9.714;2023-08-20T03:37:05;20.80;99.90
10249;DHT22;5169;50.560;9.714;2023-08-20T03:39:31;20.80;99.90
10249;DHT22;5169;50.560;9.714;2023-08-20T03:42:00;20.70;99.90
10249;DHT22;5169;50.560;9.714;2023-08-20T03:44:25;20.60;99.90
10249;DHT22;5169;50.560;9.714;2023-08-20T03:46:51;20.60;99.90
10249;DHT22;5169;50.560;9.714;2023-08-20T03:49:17;20.70;99.90
10249;DHT22;5169;50.560;9.714;2023-08-20T03:51:49;20.70;99.90
10249;DHT22;5169;50.560;9.714;2023-08-20T03:54:15;20.70;99.90
10249;DHT22;5169;50.560;9.714;2023-08-20T03:56:41;20.70;99.90
10249;DHT22;5169;50.560;9.714;2023-08-20T03:59:07;20.70;99.90
10249;DHT22;5169;50.560;9.714;2023-08-20T04:01:40;20.70;99.90
10249;DHT22;5169;50.560;9.714;2023-08-20T04:04:11;20.80;99.90
10249;DHT22;5169;50.560;9.714;2023-08-20T04:06:39;20.90;99.90
10249;DHT22;5169;50.560;9.714;2023-08-20T04:09:05;20.90;99.90
10249;DHT22;5169;50.560;9.714;2023-08-20T04:11:31;20.90;99.90
10249;DHT22;5169;50.560;9.714;2023-08-20T04:13:59;20.80;99.90
10249;DHT22;5169;50.560;9.714;2023-08-20T04:16:33;20.50;99.90
10249;DHT22;5169;50.560;9.714;2023-08-20T04:18:58;20.50;99.90
10249;DHT22;5169;50.560;9.714;2023-08-20T04:21:24;20.50;99.90
10249;DHT22;5169;50.560;9.714;2023-08-20T04:23:52;20.40;99.90
10249;DHT22;5169;50.560;9.714;2023-08-20T04:26:17;20.40;99.90
10249;DHT22;5169;50.560;9.714;2023-08-20T04:28:46;20.30;99.90
10249;DHT22;5169;50.560;9.714;2023-08-20T04:31:14;20.30;99.90
10249;DHT22;5169;50.560;9.714;2023-08-20T04:33:42;20.30;99.90
10249;DHT22;5169;50.560;9.714;2023-08-20T04:36:08;20.20;99.90
10249;DHT22;5169;50.560;9.714;2023-08-20T04:38:33;20.20;99.90
10249;DHT22;5169;50.560;9.714;2023-08-20T04:41:05;20.30;99.90
10249;DHT22;5169;50.560;9.714;2023-08-20T04:43:40;20.40;99.90
10249;DHT22;5169;50.560;9.714;2023-08-20T04:46:06;20.40;99.90
10249;DHT22;5169;50.560;9.714;2023-08-20T04:48:31;20.40;99.90
10249;DHT22;5169;50.560;9.714;2023-08-20T04:50:57;20.30;99.90
10249;DHT22;5169;50.560;9.714;2023-08-20T04:53:24;20.40;99.90
10249;DHT22;5169;50.560;9.714;2023-08-20T04:55:51;20.50;99.90
10249;DHT22;5169;50.560;9.714;2023-08-20T04:58:17;20.60;99.90
10249;DHT22;5169;50.560;9.714;2023-08-20T05:00:43;20.50;99.90
10249;DHT22;5169;50.560;9.714;2023-08-20T05:03:09;20.60;99.90
10249;DHT22;5169;50.560;9.714;2023-08-20T05:05:34;20.60;99.90
10249;DHT22;5169;50.560;9.714;2023-08-20T05:08:00;20.60;99.90
10249;DHT22;5169;50.560;9.714;2023-08-20T05:10:28;20.70;99.90
10249;DHT22;5169;50.560;9.714;2023-08-20T05:12:56;20.80;99.90
10249;DHT22;5169;50.560;9.714;2023-08-20T05:15:22;21.10;99.90
10249;DHT22;5169;50.560;9.714;2023-08-20T05:17:48;21.20;99.90
10249;DHT22;5169;50.560;9.714;2023-08-20T05:20:13;21.30;99.90
10249;DHT22;5169;50.560;9.714;2023-08-20T05:22:41;21.40;99.90
10249;DHT22;5169;50.560;9.714;2023-08-20T05:25:07;21.50;99.90
10249;DHT22;5169;50.560;9.714;2023-08-20T05:27:32;21.60;99.90
10249;DHT22;5169;50.560;9.714;2023-08-20T05:30:00;21.70;99.90
10249;DHT22;5169;50.560;9.714;2023-08-20T05:32:26;21.80;99.90
10249;DHT22;5169;50.560;9.714;2023-08-20T05:34:56;21.80;99.90
10249;DHT22;5169;50.560;9.714;2023-08-20T05:37:24;21.80;99.90
10249;DHT22;5169;50.560;9.714;2023-08-20T05:39:50;22.10;99.90
10249;DHT22;5169;50.560;9.714;2023-08-20T05:42:16;22.10;99.90
10249;DHT22;5169;50.560;9.714;2023-08-20T05:44:41;22.30;99.90
10249;DHT22;5169;50.560;9.714;2023-08-20T05:47:07;22.10;99.90
10249;DHT22;5169;50.560;9.714;2023-08-20T05:49:35;21.90;99.90
10249;DHT22;5169;50.560;9.714;2023-08-20T05:52:01;21.90;99.90
10249;DHT22;5169;50.560;9.714;2023-08-20T05:54:30;21.90;99.90
10249;DHT22;5169;50.560;9.714;2023-08-20T05:56:57;21.70;99.90
10249;DHT22;5169;50.560;9.714;2023-08-20T05:59:26;22.00;99.90
10249;DHT22;5169;50.560;9.714;2023-08-20T06:01:52;22.10;99.90
10249;DHT22;5169;50.560;9.714;2023-08-20T06:04:21;22.10;99.90
10249;DHT22;5169;50.560;9.714;2023-08-20T06:06:53;22.20;99.90
10249;DHT22;5169;50.560;9.714;2023-08-20T06:09:21;22.20;99.90
10249;DHT22;5169;50.560;9.714;2023-08-20T06:11:52;22.50;99.90
10249;DHT22;5169;50.560;9.714;2023-08-20T06:14:21;22.70;99.90
10249;DHT22;5169;50.560;9.714;2023-08-20T06:16:49;23.00;99.90
10249;DHT22;5169;50.560;9.714;2023-08-20T06:19:14;23.20;99.90
10249;DHT22;5169;50.560;9.714;2023-08-20T06:21:42;23.10;99.90
10249;DHT22;5169;50.560;9.714;2023-08-20T06:24:08;23.00;99.90
10249;DHT22;5169;50.560;9.714;2023-08-20T06:26:34;23.10;99.90
10249;DHT22;5169;50.560;9.714;2023-08-20T06:28:59;23.20;99.90
10249;DHT22;5169;50.560;9.714;2023-08-20T06:31:25;23.30;99.90
10249;DHT22;5169;50.560;9.714;2023-08-20T06:33:54;23.70;99.90
10249;DHT22;5169;50.560;9.714;2023-08-20T06:36:19;23.90;99.90
10249;DHT22;5169;50.560;9.714;2023-08-20T06:38:45;23.60;99.90
10249;DHT22;5169;50.560;9.714;2023-08-20T06:41:10;23.30;99.90
10249;DHT22;5169;50.560;9.714;2023-08-20T06:43:43;23.10;99.90
10249;DHT22;5169;50.560;9.714;2023-08-20T06:46:09;23.20;99.90
10249;DHT22;5169;50.560;9.714;2023-08-20T06:48:35;23.30;99.90
10249;DHT22;5169;50.560;9.714;2023-08-20T06:51:19;23.40;99.90
10249;DHT22;5169;50.560;9.714;2023-08-20T06:53:45;23.40;99.90
10249;DHT22;5169;50.560;9.714;2023-08-20T06:56:11;23.20;99.90
10249;DHT22;5169;50.560;9.714;2023-08-20T06:58:40;23.50;99.90
10249;DHT22;5169;50.560;9.714;2023-08-20T07:01:13;23.80;99.90
10249;DHT22;5169;50.560;9.714;2023-08-20T07:03:40;24.10;99.90
10249;DHT22;5169;50.560;9.714;2023-08-20T07:06:11;24.40;99.90
10249;DHT22;5169;50.560;9.714;2023-08-20T07:08:40;24.60;99.90
10249;DHT22;5169;50.560;9.714;2023-08-20T07:11:12;24.60;99.90
10249;DHT22;5169;50.560;9.714;2023-08-20T07:13:40;24.50;99.90
10249;DHT22;5169;50.560;9.714;2023-08-20T07:16:15;24.40;99.90
10249;DHT22;5169;50.560;9.714;2023-08-20T07:18:41;24.30;99.90
10249;DHT22;5169;50.560;9.714;2023-08-20T07:21:12;24.20;99.90
10249;DHT22;5169;50.560;9.714;2023-08-20T07:23:37;24.10;99.90
10249;DHT22;5169;50.560;9.714;2023-08-20T07:26:12;24.20;99.90
10249;DHT22;5169;50.560;9.714;2023-08-20T07:28:38;24.30;99.90
10249;DHT22;5169;50.560;9.714;2023-08-20T07:31:24;24.40;99.90
10249;DHT22;5169;50.560;9.714;2023-08-20T07:33:51;24.70;99.90
10249;DHT22;5169;50.560;9.714;2023-08-20T07:36:17;24.80;99.90
10249;DHT22;5169;50.560;9.714;2023-08-20T07:38:46;24.90;99.90
10249;DHT22;5169;50.560;9.714;2023-08-20T07:41:12;25.10;99.90
10249;DHT22;5169;50.560;9.714;2023-08-20T07:43:40;25.30;99.90
10249;DHT22;5169;50.560;9.714;2023-08-20T07:46:13;25.40;99.90
10249;DHT22;5169;50.560;9.714;2023-08-20T07:48:39;25.60;99.90
10249;DHT22;5169;50.560;9.714;2023-08-20T07:51:06;25.60;99.90
10249;DHT22;5169;50.560;9.714;2023-08-20T07:53:38;25.80;99.90
10249;DHT22;5169;50.560;9.714;2023-08-20T07:56:03;25.90;99.90
10249;DHT22;5169;50.560;9.714;2023-08-20T07:58:31;25.80;99.90
10249;DHT22;5169;50.560;9.714;2023-08-20T08:01:04;25.80;99.90
10249;DHT22;5169;50.560;9.714;2023-08-20T08:03:29;26.00;99.90
10249;DHT22;5169;50.560;9.714;2023-08-20T08:05:55;25.90;99.90
10249;DHT22;5169;50.560;9.714;2023-08-20T08:08:27;26.00;99.90
10249;DHT22;5169;50.560;9.714;2023-08-20T08:10:52;26.00;99.90
10249;DHT22;5169;50.560;9.714;2023-08-20T08:13:21;26.00;99.90
10249;DHT22;5169;50.560;9.714;2023-08-20T08:15:50;26.20;99.90
10249;DHT22;5169;50.560;9.714;2023-08-20T08:18:17;26.20;99.90
10249;DHT22;5169;50.560;9.714;2023-08-20T08:20:43;26.30;99.90
10249;DHT22;5169;50.560;9.714;2023-08-20T08:23:17;26.40;99.90
10249;DHT22;5169;50.560;9.714;2023-08-20T08:25:44;26.30;99.90
10249;DHT22;5169;50.560;9.714;2023-08-20T08:28:12;26.30;99.90
10249;DHT22;5169;50.560;9.714;2023-08-20T08:30:42;26.50;99.90
10249;DHT22;5169;50.560;9.714;2023-08-20T08:33:12;26.60;99.90
10249;DHT22;5169;50.560;9.714;2023-08-20T08:35:40;26.60;99.90
10249;DHT22;5169;50.560;9.714;2023-08-20T08:38:08;26.60;99.90
10249;DHT22;5169;50.560;9.714;2023-08-20T08:40:37;26.60;99.90
10249;DHT22;5169;50.560;9.714;2023-08-20T08:43:05;26.50;99.90
10249;DHT22;5169;50.560;9.714;2023-08-20T08:45:36;26.40;99.90
10249;DHT22;5169;50.560;9.714;2023-08-20T08:48:05;26.50;99.90
10249;DHT22;5169;50.560;9.714;2023-08-20T08:50:33;26.50;99.90
10249;DHT22;5169;50.560;9.714;2023-08-20T08:53:01;26.60;99.90
10249;DHT22;5169;50.560;9.714;2023-08-20T08:55:27;26.60;99.90
10249;DHT22;5169;50.560;9.714;2023-08-20T08:57:53;26.70;99.90
10249;DHT22;5169;50.560;9.714;2023-08-20T09:00:25;26.80;99.90
10249;DHT22;5169;50.560;9.714;2023-08-20T09:02:55;26.80;99.90
10249;DHT22;5169;50.560;9.714;2023-08-20T09:05:20;26.80;99.90
10249;DHT22;5169;50.560;9.714;2023-08-20T09:07:56;26.90;99.90
10249;DHT22;5169;50.560;9.714;2023-08-20T09:10:28;26.90;99.90
10249;DHT22;5169;50.560;9.714;2023-08-20T09:12:55;26.80;99.90
10249;DHT22;5169;50.560;9.714;2023-08-20T09:15:33;27.00;99.90
10249;DHT22;5169;50.560;9.714;2023-08-20T09:18:03;27.10;99.90
10249;DHT22;5169;50.560;9.714;2023-08-20T09:20:38;27.20;99.90
10249;DHT22;5169;50.560;9.714;2023-08-20T09:23:09;27.30;99.90
10249;DHT22;5169;50.560;9.714;2023-08-20T09:25:39;27.50;99.90
10249;DHT22;5169;50.560;9.714;2023-08-20T09:28:07;27.70;99.90
10249;DHT22;5169;50.560;9.714;2023-08-20T09:30:33;27.80;99.90
10249;DHT22;5169;50.560;9.714;2023-08-20T09:33:14;28.00;99.90
10249;DHT22;5169;50.560;9.714;2023-08-20T09:35:54;28.10;99.90
10249;DHT22;5169;50.560;9.714;2023-08-20T09:38:21;28.10;99.90
10249;DHT22;5169;50.560;9.714;2023-08-20T09:40:54;28.20;99.90
10249;DHT22;5169;50.560;9.714;2023-08-20T09:43:30;28.40;99.90
10249;DHT22;5169;50.560;9.714;2023-08-20T09:46:05;28.50;99.90
10249;DHT22;5169;50.560;9.714;2023-08-20T09:48:41;28.60;99.90
10249;DHT22;5169;50.560;9.714;2023-08-20T09:51:11;29.00;99.90
10249;DHT22;5169;50.560;9.714;2023-08-20T09:56:34;29.70;99.90
10249;DHT22;5169;50.560;9.714;2023-08-20T09:59:10;29.90;99.90
10249;DHT22;5169;50.560;9.714;2023-08-20T10:01:43;30.10;99.90
10249;DHT22;5169;50.560;9.714;2023-08-20T10:04:10;30.20;99.90
10249;DHT22;5169;50.560;9.714;2023-08-20T10:06:42;30.40;99.90
10249;DHT22;5169;50.560;9.714;2023-08-20T10:09:09;30.70;99.90
10249;DHT22;5169;50.560;9.714;2023-08-20T10:11:35;30.90;99.90
10249;DHT22;5169;50.560;9.714;2023-08-20T10:14:10;31.00;99.90
10249;DHT22;5169;50.560;9.714;2023-08-20T10:16:45;31.00;99.90
10249;DHT22;5169;50.560;9.714;2023-08-20T10:19:10;31.20;99.90
10249;DHT22;5169;50.560;9.714;2023-08-20T10:21:36;31.20;99.90
10249;DHT22;5169;50.560;9.714;2023-08-20T10:24:05;31.30;99.90
10249;DHT22;5169;50.560;9.714;2023-08-20T10:26:35;31.50;99.90
10249;DHT22;5169;50.560;9.714;2023-08-20T10:29:40;31.30;99.90
10249;DHT22;5169;50.560;9.714;2023-08-20T10:32:10;31.60;99.90
10249;DHT22;5169;50.560;9.714;2023-08-20T10:34:36;32.20;99.90
10249;DHT22;5169;50.560;9.714;2023-08-20T10:37:28;32.50;99.90
10249;DHT22;5169;50.560;9.714;2023-08-20T10:39:55;32.50;99.90
10249;DHT22;5169;50.560;9.714;2023-08-20T10:42:30;33.00;99.90
10249;DHT22;5169;50.560;9.714;2023-08-20T10:45:08;33.30;99.90
10249;DHT22;5169;50.560;9.714;2023-08-20T10:47:47;34.30;97.60
10249;DHT22;5169;50.560;9.714;2023-08-20T10:50:18;35.20;96.40
10249;DHT22;5169;50.560;9.714;2023-08-20T10:52:48;36.20;95.20
10249;DHT22;5169;50.560;9.714;2023-08-20T10:55:22;37.40;93.50
10249;DHT22;5169;50.560;9.714;2023-08-20T10:57:57;38.30;89.40
10249;DHT22;5169;50.560;9.714;2023-08-20T11:00:32;39.00;89.30
10249;DHT22;5169;50.560;9.714;2023-08-20T11:02:58;40.00;86.00
10249;DHT22;5169;50.560;9.714;2023-08-20T11:05:32;40.40;83.40
10249;DHT22;5169;50.560;9.714;2023-08-20T11:07:58;40.50;80.50
10249;DHT22;5169;50.560;9.714;2023-08-20T11:10:34;41.60;79.00
10249;DHT22;5169;50.560;9.714;2023-08-20T11:13:08;42.20;73.60
10249;DHT22;5169;50.560;9.714;2023-08-20T11:15:36;42.00;76.40
10249;DHT22;5169;50.560;9.714;2023-08-20T11:18:10;41.90;73.00
10249;DHT22;5169;50.560;9.714;2023-08-20T11:20:36;41.90;72.10
10249;DHT22;5169;50.560;9.714;2023-08-20T11:23:02;42.20;71.80
10249;DHT22;5169;50.560;9.714;2023-08-20T11:25:31;43.20;68.40
10249;DHT22;5169;50.560;9.714;2023-08-20T11:27:58;43.80;67.70
10249;DHT22;5169;50.560;9.714;2023-08-20T11:30:32;43.40;64.30
10249;DHT22;5169;50.560;9.714;2023-08-20T11:33:00;44.50;63.10
10249;DHT22;5169;50.560;9.714;2023-08-20T11:35:32;44.80;60.50
10249;DHT22;5169;50.560;9.714;2023-08-20T11:37:58;44.10;59.00
10249;DHT22;5169;50.560;9.714;2023-08-20T11:40:24;45.10;60.10
10249;DHT22;5169;50.560;9.714;2023-08-20T11:42:57;44.80;58.80
10249;DHT22;5169;50.560;9.714;2023-08-20T11:45:23;44.90;58.80
10249;DHT22;5169;50.560;9.714;2023-08-20T11:47:49;45.30;57.60
10249;DHT22;5169;50.560;9.714;2023-08-20T11:50:21;45.30;56.90
10249;DHT22;5169;50.560;9.714;2023-08-20T11:52:47;44.40;59.40
10249;DHT22;5169;50.560;9.714;2023-08-20T11:55:22;44.30;58.40
10249;DHT22;5169;50.560;9.714;2023-08-20T11:57:59;42.60;57.80
10249;DHT22;5169;50.560;9.714;2023-08-20T12:00:26;42.40;60.60
10249;DHT22;5169;50.560;9.714;2023-08-20T12:02:57;41.70;59.90
10249;DHT22;5169;50.560;9.714;2023-08-20T12:05:28;43.20;58.40
10249;DHT22;5169;50.560;9.714;2023-08-20T12:07:59;44.20;56.10
10249;DHT22;5169;50.560;9.714;2023-08-20T12:10:29;43.90;57.70
10249;DHT22;5169;50.560;9.714;2023-08-20T12:12:58;43.90;59.50
10249;DHT22;5169;50.560;9.714;2023-08-20T12:15:25;42.40;59.60
10249;DHT22;5169;50.560;9.714;2023-08-20T12:17:58;40.00;65.60
10249;DHT22;5169;50.560;9.714;2023-08-20T12:20:28;38.90;70.00
10249;DHT22;5169;50.560;9.714;2023-08-20T12:22:58;39.60;67.90
10249;DHT22;5169;50.560;9.714;2023-08-20T12:25:25;42.10;64.30
10249;DHT22;5169;50.560;9.714;2023-08-20T12:27:51;43.40;60.80
10249;DHT22;5169;50.560;9.714;2023-08-20T12:30:16;43.60;57.60
10249;DHT22;5169;50.560;9.714;2023-08-20T12:32:42;43.60;59.20
10249;DHT22;5169;50.560;9.714;2023-08-20T12:35:10;42.80;58.20
10249;DHT22;5169;50.560;9.714;2023-08-20T12:37:35;43.10;58.70
10249;DHT22;5169;50.560;9.714;2023-08-20T12:40:01;42.80;60.50
10249;DHT22;5169;50.560;9.714;2023-08-20T12:42:26;41.90;62.20
10249;DHT22;5169;50.560;9.714;2023-08-20T12:44:52;41.70;61.70
10249;DHT22;5169;50.560;9.714;2023-08-20T12:47:17;41.00;63.20
10249;DHT22;5169;50.560;9.714;2023-08-20T12:49:43;39.50;64.90
10249;DHT22;5169;50.560;9.714;2023-08-20T12:52:09;38.60;71.20
10249;DHT22;5169;50.560;9.714;2023-08-20T12:54:34;38.10;70.00
10249;DHT22;5169;50.560;9.714;2023-08-20T12:57:00;37.40;73.60
10249;DHT22;5169;50.560;9.714;2023-08-20T12:59:25;36.90;72.40
10249;DHT22;5169;50.560;9.714;2023-08-20T13:01:53;36.40;72.10
10249;DHT22;5169;50.560;9.714;2023-08-20T13:04:19;36.10;74.50
10249;DHT22;5169;50.560;9.714;2023-08-20T13:06:52;35.80;74.70
10249;DHT22;5169;50.560;9.714;2023-08-20T13:09:18;35.40;74.50
10249;DHT22;5169;50.560;9.714;2023-08-20T13:11:47;35.00;77.00
10249;DHT22;5169;50.560;9.714;2023-08-20T13:14:13;35.00;75.50
10249;DHT22;5169;50.560;9.714;2023-08-20T13:16:39;34.90;76.30
10249;DHT22;5169;50.560;9.714;2023-08-20T13:19:05;34.70;77.60
10249;DHT22;5169;50.560;9.714;2023-08-20T13:21:30;34.30;78.10
10249;DHT22;5169;50.560;9.714;2023-08-20T13:23:56;34.10;78.20
10249;DHT22;5169;50.560;9.714;2023-08-20T13:26:24;33.60;77.90
10249;DHT22;5169;50.560;9.714;2023-08-20T13:28:49;33.50;80.70
10249;DHT22;5169;50.560;9.714;2023-08-20T13:31:15;33.50;81.70
10249;DHT22;5169;50.560;9.714;2023-08-20T13:33:40;33.30;80.20
10249;DHT22;5169;50.560;9.714;2023-08-20T13:36:06;33.10;80.00
10249;DHT22;5169;50.560;9.714;2023-08-20T13:38:35;32.80;79.40
10249;DHT22;5169;50.560;9.714;2023-08-20T13:41:00;32.70;79.40
10249;DHT22;5169;50.560;9.714;2023-08-20T13:43:28;33.00;80.00
10249;DHT22;5169;50.560;9.714;2023-08-20T13:45:54;33.00;82.20
10249;DHT22;5169;50.560;9.714;2023-08-20T13:48:24;33.10;81.80
10249;DHT22;5169;50.560;9.714;2023-08-20T13:50:50;33.10;81.90
10249;DHT22;5169;50.560;9.714;2023-08-20T13:53:17;33.10;73.80
10249;DHT22;5169;50.560;9.714;2023-08-20T13:55:43;33.00;73.60
10249;DHT22;5169;50.560;9.714;2023-08-20T13:58:11;32.90;73.20
10249;DHT22;5169;50.560;9.714;2023-08-20T14:00:36;33.00;77.30
10249;DHT22;5169;50.560;9.714;2023-08-20T14:03:02;32.80;74.90
10249;DHT22;5169;50.560;9.714;2023-08-20T14:05:28;32.80;79.60
10249;DHT22;5169;50.560;9.714;2023-08-20T14:07:54;32.90;77.60
10249;DHT22;5169;50.560;9.714;2023-08-20T14:10:20;33.00;79.20
10249;DHT22;5169;50.560;9.714;2023-08-20T14:12:45;32.80;78.30
10249;DHT22;5169;50.560;9.714;2023-08-20T14:15:13;32.60;82.10
10249;DHT22;5169;50.560;9.714;2023-08-20T14:17:40;32.40;81.40
10249;DHT22;5169;50.560;9.714;2023-08-20T14:20:06;32.40;83.40
10249;DHT22;5169;50.560;9.714;2023-08-20T14:22:33;32.40;80.00
10249;DHT22;5169;50.560;9.714;2023-08-20T14:25:03;32.60;80.90
10249;DHT22;5169;50.560;9.714;2023-08-20T14:27:33;32.60;81.60
10249;DHT22;5169;50.560;9.714;2023-08-20T14:29:59;32.60;79.80
10249;DHT22;5169;50.560;9.714;2023-08-20T14:32:27;32.50;83.90
10249;DHT22;5169;50.560;9.714;2023-08-20T14:34:58;32.30;84.30
10249;DHT22;5169;50.560;9.714;2023-08-20T14:37:23;32.30;81.60
10249;DHT22;5169;50.560;9.714;2023-08-20T14:39:54;32.20;82.60
10249;DHT22;5169;50.560;9.714;2023-08-20T14:42:19;32.10;83.00
10249;DHT22;5169;50.560;9.714;2023-08-20T14:44:47;32.00;84.90
10249;DHT22;5169;50.560;9.714;2023-08-20T14:47:13;32.00;80.20
10249;DHT22;5169;50.560;9.714;2023-08-20T14:49:41;31.80;82.70
10249;DHT22;5169;50.560;9.714;2023-08-20T14:52:06;31.90;81.90
10249;DHT22;5169;50.560;9.714;2023-08-20T14:54:32;31.70;84.00
10249;DHT22;5169;50.560;9.714;2023-08-20T14:56:58;31.60;84.20
10249;DHT22;5169;50.560;9.714;2023-08-20T14:59:24;31.50;86.10
10249;DHT22;5169;50.560;9.714;2023-08-20T15:01:49;31.60;84.60
10249;DHT22;5169;50.560;9.714;2023-08-20T15:04:17;31.40;84.90
10249;DHT22;5169;50.560;9.714;2023-08-20T15:06:43;31.40;86.50
10249;DHT22;5169;50.560;9.714;2023-08-20T15:09:08;31.40;86.80
10249;DHT22;5169;50.560;9.714;2023-08-20T15:11:43;31.40;87.10
10249;DHT22;5169;50.560;9.714;2023-08-20T15:14:11;31.30;83.10
10249;DHT22;5169;50.560;9.714;2023-08-20T15:16:36;31.30;84.80
10249;DHT22;5169;50.560;9.714;2023-08-20T15:19:02;31.40;84.20
10249;DHT22;5169;50.560;9.714;2023-08-20T15:21:30;31.40;86.60
10249;DHT22;5169;50.560;9.714;2023-08-20T15:23:56;31.30;84.70
10249;DHT22;5169;50.560;9.714;2023-08-20T15:26:22;31.20;87.80
10249;DHT22;5169;50.560;9.714;2023-08-20T15:28:48;31.20;84.90
10249;DHT22;5169;50.560;9.714;2023-08-20T15:31:16;31.30;86.50
10249;DHT22;5169;50.560;9.714;2023-08-20T15:33:42;31.00;86.10
10249;DHT22;5169;50.560;9.714;2023-08-20T15:36:07;30.90;86.60
10249;DHT22;5169;50.560;9.714;2023-08-20T15:38:33;30.80;86.20
10249;DHT22;5169;50.560;9.714;2023-08-20T15:41:01;30.60;86.10
10249;DHT22;5169;50.560;9.714;2023-08-20T15:43:27;30.60;85.60
10249;DHT22;5169;50.560;9.714;2023-08-20T15:45:52;30.80;86.70
10249;DHT22;5169;50.560;9.714;2023-08-20T15:48:18;31.00;85.80
10249;DHT22;5169;50.560;9.714;2023-08-20T15:50:44;31.10;87.80
10249;DHT22;5169;50.560;9.714;2023-08-20T15:53:09;31.20;88.20
10249;DHT22;5169;50.560;9.714;2023-08-20T15:55:37;31.10;90.20
10249;DHT22;5169;50.560;9.714;2023-08-20T15:58:05;31.20;88.40
10249;DHT22;5169;50.560;9.714;2023-08-20T16:00:31;30.90;90.50